Valley, Pennsylvania
Current Conditions -  °F | °C
As of 6:53 AM on Tuesday 27 Jan 2015 (Local Time) from KSEG Reporting Station
Overcast Overcast  
Wind Chill: 15°   Ceiling: 4600
Heat Index: 24°   Visibility: 10mi
Dew Point: 17°   Wind: 8mph
Humidity: 75%   Direction: 360°N
Pressure: 29.82"   Gusts: NA
Location:  41.0117°N, 76.6578°W
Report Text: KSEG 271153Z AUTO 36007KT 10SM BKN046 OVC100 M04/M08 A2982 RMK AO2 SNB1057E38 SLP104 P0000 60000 70004 T10441083 11039 21050 53007
Loading
Personal Weather Stations






























Interactive Weather Map New forecast layout! Learn more

10-Day Weather Forecast

Advertisements
Track Severe Weather on mobile